Time;durP1;ratioP1;P1;durP2;ratioP2;P2;SDS_P1;SDS_P2;PMS_P1;PMS_P2;Temp;Humidity;BMP_temperature;BMP_pressure;BME280_temperature;BME280_humidity;BME280_pressure;Samples;Min_cycle;Max_cycle;Signal;HPM_P1;HPM_P2
2022/10/10 00:00:56;;;;;;;;;;;6.90;99.90;;;;;;6116866;23;20336;-63
2022/10/10 00:03:21;;;;;;;;;;;6.90;99.90;;;;;;6116328;23;19925;-63
2022/10/10 00:05:47;;;;;;;;;;;6.80;99.90;;;;;;6116818;23;20421;-65
2022/10/10 00:08:12;;;;;;;;;;;6.80;99.90;;;;;;6116617;23;20276;-64
2022/10/10 00:10:38;;;;;;;;;;;6.80;99.90;;;;;;6116704;23;19925;-64
2022/10/10 00:13:04;;;;;;;;;;;6.80;99.90;;;;;;6116497;23;20000;-64
2022/10/10 00:15:30;;;;;;;;;;;6.80;99.90;;;;;;6116391;23;19925;-64
2022/10/10 00:17:55;;;;;;;;;;;6.80;99.90;;;;;;6116379;23;19965;-64
2022/10/10 00:20:21;;;;;;;;;;;6.80;99.90;;;;;;6116596;23;19924;-64
2022/10/10 00:22:46;;;;;;;;;;;6.70;99.90;;;;;;6116432;23;19924;-64
2022/10/10 00:25:12;;;;;;;;;;;6.70;99.90;;;;;;6116806;23;20389;-64
2022/10/10 00:27:38;;;;;;;;;;;6.70;99.90;;;;;;6116525;23;19957;-65
2022/10/10 00:30:04;;;;;;;;;;;6.60;99.90;;;;;;6116587;23;19936;-64
2022/10/10 00:32:30;;;;;;;;;;;6.60;99.90;;;;;;6116979;23;20007;-64
2022/10/10 00:34:56;;;;;;;;;;;6.50;99.90;;;;;;6116754;23;19958;-64
2022/10/10 00:37:21;;;;;;;;;;;6.50;99.90;;;;;;6116454;23;20240;-64
2022/10/10 00:39:47;;;;;;;;;;;6.50;99.90;;;;;;6116842;23;19974;-65
2022/10/10 00:42:13;;;;;;;;;;;6.40;99.90;;;;;;6117117;23;19929;-64
2022/10/10 00:44:40;;;;;;;;;;;6.50;99.90;;;;;;6116391;23;19978;-62
2022/10/10 00:47:05;;;;;;;;;;;6.40;99.90;;;;;;6116176;23;20385;-62
2022/10/10 00:49:33;;;;;;;;;;;6.40;99.90;;;;;;6116242;23;20414;-63
2022/10/10 00:51:59;;;;;;;;;;;6.40;99.90;;;;;;6116652;23;19932;-62
2022/10/10 00:54:26;;;;;;;;;;;6.40;99.90;;;;;;6115876;23;19925;-62
2022/10/10 00:56:54;;;;;;;;;;;6.50;99.90;;;;;;6116244;23;20003;-61
2022/10/10 00:59:20;;;;;;;;;;;7.50;99.90;;;;;;6116646;23;19925;-63
2022/10/10 01:01:46;;;;;;;;;;;6.60;99.90;;;;;;6116689;23;20240;-62
2022/10/10 01:04:28;;;;;;;;;;;6.50;99.90;;;;;;6114606;23;19925;-63
2022/10/10 01:06:54;;;;;;;;;;;6.60;99.90;;;;;;6116952;23;19932;-63
2022/10/10 01:09:20;;;;;;;;;;;6.60;99.90;;;;;;6116778;23;19925;-63
2022/10/10 01:11:54;;;;;;;;;;;6.60;99.90;;;;;;6116313;23;19976;-62
2022/10/10 01:14:37;;;;;;;;;;;6.60;99.90;;;;;;6116115;23;19925;-62
2022/10/10 01:17:11;;;;;;;;;;;6.60;99.90;;;;;;6116223;23;19925;-62
2022/10/10 01:19:57;;;;;;;;;;;6.60;99.90;;;;;;6116092;23;19928;-63
2022/10/10 01:22:31;;;;;;;;;;;6.60;99.90;;;;;;6115882;23;19925;-62
2022/10/10 01:25:15;;;;;;;;;;;6.60;99.90;;;;;;6116334;23;19950;-64
2022/10/10 01:27:51;;;;;;;;;;;6.60;99.90;;;;;;6116215;23;20027;-63
2022/10/10 01:30:20;;;;;;;;;;;6.60;99.90;;;;;;6116832;23;20336;-63
2022/10/10 01:33:08;;;;;;;;;;;6.60;99.90;;;;;;6117336;23;19925;-61
2022/10/10 01:35:38;;;;;;;;;;;6.60;99.90;;;;;;6132223;23;19931;-61
2022/10/10 01:38:13;;;;;;;;;;;6.60;99.90;;;;;;6116784;23;20351;-61
2022/10/10 01:40:45;;;;;;;;;;;6.70;99.90;;;;;;6117516;23;19960;-61
2022/10/10 01:43:11;;;;;;;;;;;6.60;99.90;;;;;;6117261;23;19924;-61
2022/10/10 01:45:42;;;;;;;;;;;6.60;99.90;;;;;;6117535;23;19932;-62
2022/10/10 01:48:07;;;;;;;;;;;6.60;99.90;;;;;;6117372;23;19933;-61
2022/10/10 01:50:38;;;;;;;;;;;6.60;99.90;;;;;;6117022;23;19948;-62
2022/10/10 01:53:16;;;;;;;;;;;6.60;99.90;;;;;;6117443;23;19924;-61
2022/10/10 01:55:47;;;;;;;;;;;6.70;99.90;;;;;;6117303;23;19925;-62
2022/10/10 01:58:20;;;;;;;;;;;6.70;99.90;;;;;;6116924;23;19932;-62
2022/10/10 02:00:59;;;;;;;;;;;6.70;99.90;;;;;;6117894;23;19925;-62
2022/10/10 02:03:29;;;;;;;;;;;6.70;99.90;;;;;;6116883;23;19924;-62
2022/10/10 02:06:01;;;;;;;;;;;6.70;99.90;;;;;;6116791;23;19925;-62
2022/10/10 02:08:39;;;;;;;;;;;6.70;99.90;;;;;;6117101;23;20024;-62
2022/10/10 02:11:07;;;;;;;;;;;6.60;99.90;;;;;;6117143;23;19925;-64
2022/10/10 02:13:42;;;;;;;;;;;6.60;99.90;;;;;;6117130;23;19931;-63
2022/10/10 02:16:12;;;;;;;;;;;6.50;99.90;;;;;;6115188;23;20279;-62
2022/10/10 02:18:38;;;;;;;;;;;6.50;99.90;;;;;;6116654;23;19990;-61
2022/10/10 02:21:05;;;;;;;;;;;6.50;99.90;;;;;;6117517;23;20380;-61
2022/10/10 02:23:32;;;;;;;;;;;6.50;99.90;;;;;;6116835;23;19928;-63
2022/10/10 02:25:57;;;;;;;;;;;6.50;99.90;;;;;;6117419;23;19952;-63
2022/10/10 02:28:38;;;;;;;;;;;6.50;99.90;;;;;;6116886;23;19944;-62
2022/10/10 02:31:24;;;;;;;;;;;6.50;99.90;;;;;;6115591;23;19953;-63
2022/10/10 02:33:55;;;;;;;;;;;6.50;99.90;;;;;;6132083;23;19933;-63
2022/10/10 02:36:22;;;;;;;;;;;6.50;99.90;;;;;;6117213;23;20169;-63
2022/10/10 02:38:48;;;;;;;;;;;6.50;99.90;;;;;;6116553;23;19932;-63
2022/10/10 02:41:16;;;;;;;;;;;7.60;99.90;;;;;;6116352;23;20398;-63
2022/10/10 02:43:42;;;;;;;;;;;6.40;99.90;;;;;;6116920;23;19925;-64
2022/10/10 02:46:10;;;;;;;;;;;6.40;99.90;;;;;;6117310;23;19936;-64
2022/10/10 02:48:36;;;;;;;;;;;6.40;99.90;;;;;;6116865;23;19952;-64
2022/10/10 02:51:01;;;;;;;;;;;6.40;99.90;;;;;;6116591;23;20237;-62
2022/10/10 02:53:27;;;;;;;;;;;6.40;99.90;;;;;;6117043;23;19997;-63
2022/10/10 02:55:52;;;;;;;;;;;6.30;99.90;;;;;;6117024;23;19924;-62
2022/10/10 02:58:18;;;;;;;;;;;6.30;99.90;;;;;;6116570;23;19925;-63
2022/10/10 03:00:43;;;;;;;;;;;6.30;99.90;;;;;;6116565;23;19979;-63
2022/10/10 03:03:09;;;;;;;;;;;6.30;99.90;;;;;;6116833;23;19932;-64
2022/10/10 03:05:34;;;;;;;;;;;6.30;99.90;;;;;;6117114;23;19924;-62
2022/10/10 03:08:00;;;;;;;;;;;6.30;99.90;;;;;;6116823;23;19929;-62
2022/10/10 03:10:26;;;;;;;;;;;6.30;99.90;;;;;;6117478;23;20277;-64
2022/10/10 03:12:51;;;;;;;;;;;6.30;99.90;;;;;;6117136;23;19956;-63
2022/10/10 03:15:17;;;;;;;;;;;6.30;99.90;;;;;;6116691;23;19988;-63
2022/10/10 03:17:42;;;;;;;;;;;6.30;99.90;;;;;;6116937;23;20264;-64
2022/10/10 03:20:08;;;;;;;;;;;6.20;99.90;;;;;;6117387;23;20312;-63
2022/10/10 03:22:34;;;;;;;;;;;6.20;99.90;;;;;;6116707;23;20340;-61
2022/10/10 03:24:59;;;;;;;;;;;6.20;99.90;;;;;;6116761;23;19929;-65
2022/10/10 03:27:25;;;;;;;;;;;6.30;99.90;;;;;;6116027;23;19995;-64
2022/10/10 03:29:50;;;;;;;;;;;6.30;99.90;;;;;;6117117;23;19925;-64
2022/10/10 03:32:16;;;;;;;;;;;6.30;99.90;;;;;;6116139;23;20020;-64
2022/10/10 03:34:42;;;;;;;;;;;6.30;99.90;;;;;;6116481;23;19924;-64
2022/10/10 03:37:08;;;;;;;;;;;6.30;99.90;;;;;;6116628;23;19933;-64
2022/10/10 03:39:33;;;;;;;;;;;6.20;99.90;;;;;;6116534;23;20134;-64
2022/10/10 03:41:59;;;;;;;;;;;6.20;99.90;;;;;;6116614;23;20026;-64
2022/10/10 03:44:24;;;;;;;;;;;6.30;99.90;;;;;;6116409;23;19925;-64
2022/10/10 03:46:50;;;;;;;;;;;6.30;99.90;;;;;;6116920;23;19928;-65
2022/10/10 03:49:16;;;;;;;;;;;6.30;99.90;;;;;;6117387;23;19925;-65
2022/10/10 03:51:41;;;;;;;;;;;6.20;99.90;;;;;;6116019;23;19932;-62
2022/10/10 03:54:07;;;;;;;;;;;6.20;99.90;;;;;;6116894;23;19931;-62
2022/10/10 03:56:32;;;;;;;;;;;6.10;99.90;;;;;;6116510;23;19932;-62
2022/10/10 03:58:59;;;;;;;;;;;6.10;99.90;;;;;;6115717;23;19936;-62
2022/10/10 04:01:26;;;;;;;;;;;6.00;99.90;;;;;;6116185;23;20336;-63
2022/10/10 04:03:51;;;;;;;;;;;5.90;99.90;;;;;;6116278;23;19952;-61
2022/10/10 04:06:17;;;;;;;;;;;6.00;99.90;;;;;;6115170;23;20365;-61
2022/10/10 04:08:43;;;;;;;;;;;5.90;99.90;;;;;;6114647;23;19925;-62
2022/10/10 04:11:08;;;;;;;;;;;5.90;99.90;;;;;;6114148;23;19932;-64
2022/10/10 04:13:34;;;;;;;;;;;5.90;99.90;;;;;;6116943;23;19980;-61
2022/10/10 04:16:00;;;;;;;;;;;6.00;99.90;;;;;;6116071;23;19924;-61
2022/10/10 04:18:25;;;;;;;;;;;5.90;99.90;;;;;;6114708;23;20012;-61
2022/10/10 04:20:51;;;;;;;;;;;5.90;99.90;;;;;;6116903;23;19925;-64
2022/10/10 04:23:17;;;;;;;;;;;6.00;99.90;;;;;;6116898;23;19925;-62
2022/10/10 04:25:43;;;;;;;;;;;6.00;99.90;;;;;;6116513;23;19924;-64
2022/10/10 04:28:12;;;;;;;;;;;6.00;99.90;;;;;;6115563;23;19925;-62
2022/10/10 04:30:37;;;;;;;;;;;6.00;99.90;;;;;;6114712;23;19928;-61
2022/10/10 04:33:03;;;;;;;;;;;6.00;99.90;;;;;;6114784;23;19935;-61
2022/10/10 04:35:28;;;;;;;;;;;5.90;99.90;;;;;;6114926;23;20267;-61
2022/10/10 04:37:54;;;;;;;;;;;5.90;99.90;;;;;;6114351;23;20007;-62
2022/10/10 04:40:19;;;;;;;;;;;5.90;99.90;;;;;;6114809;23;20411;-62
2022/10/10 04:42:45;;;;;;;;;;;5.90;99.90;;;;;;6115681;23;19931;-62
2022/10/10 04:45:10;;;;;;;;;;;5.80;99.90;;;;;;6116527;23;19932;-62
2022/10/10 04:47:36;;;;;;;;;;;5.80;99.90;;;;;;6116627;23;20332;-61
2022/10/10 04:50:02;;;;;;;;;;;5.80;99.90;;;;;;6089767;23;19956;-61
2022/10/10 04:52:27;;;;;;;;;;;5.70;99.90;;;;;;6115584;23;19933;-62
2022/10/10 04:54:53;;;;;;;;;;;5.70;99.90;;;;;;6115658;23;19933;-62
2022/10/10 04:57:18;;;;;;;;;;;5.70;99.90;;;;;;6116337;23;20009;-64
2022/10/10 04:59:44;;;;;;;;;;;5.70;99.90;;;;;;6114540;23;20043;-64
2022/10/10 05:02:09;;;;;;;;;;;5.70;99.90;;;;;;6115045;23;19925;-62
2022/10/10 05:04:35;;;;;;;;;;;5.70;99.90;;;;;;6115196;23;19925;-65
2022/10/10 05:07:00;;;;;;;;;;;5.70;99.90;;;;;;6115465;23;19925;-62
2022/10/10 05:09:26;;;;;;;;;;;5.70;99.90;;;;;;6115834;23;19931;-64
2022/10/10 05:11:51;;;;;;;;;;;5.60;99.90;;;;;;6115172;23;19995;-63
2022/10/10 05:14:17;;;;;;;;;;;5.70;99.90;;;;;;6116049;23;20005;-63
2022/10/10 05:16:43;;;;;;;;;;;5.70;99.90;;;;;;6115951;23;19925;-64
2022/10/10 05:19:08;;;;;;;;;;;5.70;99.90;;;;;;6115958;23;19959;-63
2022/10/10 05:21:34;;;;;;;;;;;5.70;99.90;;;;;;6116238;23;19999;-64
2022/10/10 05:23:59;;;;;;;;;;;5.70;99.90;;;;;;6115996;23;20031;-65
2022/10/10 05:26:25;;;;;;;;;;;5.60;99.90;;;;;;6114416;23;20251;-62
2022/10/10 05:28:51;;;;;;;;;;;6.30;99.90;;;;;;6115715;23;19976;-64
2022/10/10 05:31:16;;;;;;;;;;;5.70;99.90;;;;;;6116131;23;19925;-61
2022/10/10 05:33:42;;;;;;;;;;;5.60;99.90;;;;;;6114108;23;19925;-64
2022/10/10 05:36:09;;;;;;;;;;;5.60;99.90;;;;;;6116310;23;20007;-63
2022/10/10 05:38:35;;;;;;;;;;;5.60;99.90;;;;;;6116277;23;20003;-62
2022/10/10 05:41:01;;;;;;;;;;;5.50;99.90;;;;;;6115018;23;19931;-61
2022/10/10 05:43:26;;;;;;;;;;;5.50;99.90;;;;;;6115778;23;19996;-64
2022/10/10 05:45:52;;;;;;;;;;;5.60;99.90;;;;;;6114827;23;19996;-62
2022/10/10 05:48:18;;;;;;;;;;;5.60;99.90;;;;;;6114165;23;20335;-62
2022/10/10 05:50:47;;;;;;;;;;;5.60;99.90;;;;;;6115488;23;19925;-62
2022/10/10 05:53:13;;;;;;;;;;;5.50;99.90;;;;;;6116119;23;19932;-63
2022/10/10 05:55:39;;;;;;;;;;;5.60;99.90;;;;;;6116349;23;19925;-62
2022/10/10 05:58:04;;;;;;;;;;;5.60;99.90;;;;;;6115730;23;20392;-64
2022/10/10 06:00:30;;;;;;;;;;;5.60;99.90;;;;;;6116033;23;19928;-64
2022/10/10 06:02:57;;;;;;;;;;;5.70;99.90;;;;;;6113357;23;20233;-65
2022/10/10 06:05:23;;;;;;;;;;;5.60;99.90;;;;;;6115800;23;19925;-65
2022/10/10 06:07:48;;;;;;;;;;;5.60;99.90;;;;;;6116184;23;19982;-64
2022/10/10 06:10:14;;;;;;;;;;;5.70;99.90;;;;;;6115906;23;19925;-64
2022/10/10 06:12:39;;;;;;;;;;;5.70;99.90;;;;;;6115142;23;20015;-64
2022/10/10 06:15:05;;;;;;;;;;;5.70;99.90;;;;;;6116713;23;19925;-63
2022/10/10 06:17:31;;;;;;;;;;;5.70;99.90;;;;;;6116282;23;19925;-64
2022/10/10 06:19:57;;;;;;;;;;;5.70;99.90;;;;;;6111136;23;19968;-62
2022/10/10 06:22:23;;;;;;;;;;;5.80;99.90;;;;;;6116386;23;19955;-62
2022/10/10 06:24:48;;;;;;;;;;;5.90;99.90;;;;;;6117045;23;20369;-62
2022/10/10 06:27:14;;;;;;;;;;;5.90;99.90;;;;;;6115867;23;20304;-61
2022/10/10 06:29:39;;;;;;;;;;;5.90;99.90;;;;;;6114287;23;20344;-64
2022/10/10 06:32:05;;;;;;;;;;;6.00;99.90;;;;;;6116279;23;20340;-63
2022/10/10 06:34:30;;;;;;;;;;;6.10;99.90;;;;;;6114491;23;19950;-62
2022/10/10 06:36:56;;;;;;;;;;;6.20;99.90;;;;;;6114118;23;20336;-64
2022/10/10 06:39:21;;;;;;;;;;;6.20;99.90;;;;;;6116437;23;19960;-64
2022/10/10 06:41:48;;;;;;;;;;;6.30;99.90;;;;;;6113914;23;20350;-64
2022/10/10 06:44:15;;;;;;;;;;;6.40;99.90;;;;;;6115179;23;19931;-64
2022/10/10 06:46:40;;;;;;;;;;;6.50;99.90;;;;;;6115398;23;19968;-63
2022/10/10 06:49:06;;;;;;;;;;;6.60;99.90;;;;;;6115403;23;20409;-64
2022/10/10 06:51:32;;;;;;;;;;;6.60;99.90;;;;;;6116115;23;20279;-62
2022/10/10 06:53:57;;;;;;;;;;;6.70;99.90;;;;;;6115831;23;20426;-64
2022/10/10 06:56:23;;;;;;;;;;;6.70;99.90;;;;;;6115512;23;19956;-64
2022/10/10 06:58:49;;;;;;;;;;;6.80;99.90;;;;;;6116922;23;19925;-62
2022/10/10 07:01:19;;;;;;;;;;;6.90;99.90;;;;;;6116310;23;19932;-62
2022/10/10 07:03:45;;;;;;;;;;;7.00;99.90;;;;;;6114209;23;19925;-62
2022/10/10 07:06:11;;;;;;;;;;;7.10;99.90;;;;;;6115235;23;19925;-62
2022/10/10 07:08:37;;;;;;;;;;;7.10;99.90;;;;;;6116419;23;19925;-62
2022/10/10 07:11:03;;;;;;;;;;;7.20;99.90;;;;;;6115518;23;20284;-62
2022/10/10 07:13:29;;;;;;;;;;;7.30;99.90;;;;;;6115868;23;19925;-62
2022/10/10 07:15:54;;;;;;;;;;;7.40;99.90;;;;;;6115852;23;20413;-63
2022/10/10 07:18:20;;;;;;;;;;;7.40;99.90;;;;;;6114484;23;20476;-61
2022/10/10 07:20:46;;;;;;;;;;;7.60;99.90;;;;;;6113793;23;19925;-61
2022/10/10 07:23:11;;;;;;;;;;;7.60;99.90;;;;;;6115503;23;20352;-62
2022/10/10 07:25:38;;;;;;;;;;;7.70;99.90;;;;;;6114310;23;19955;-62
2022/10/10 07:28:04;;;;;;;;;;;7.90;99.90;;;;;;6115924;23;20023;-62
2022/10/10 07:30:30;;;;;;;;;;;7.80;99.90;;;;;;6113827;23;19971;-62
2022/10/10 07:32:55;;;;;;;;;;;8.10;99.90;;;;;;6115480;23;19924;-61
2022/10/10 07:35:21;;;;;;;;;;;8.20;99.90;;;;;;6114036;23;19925;-62
2022/10/10 07:37:47;;;;;;;;;;;8.40;99.90;;;;;;6114840;23;20335;-62
2022/10/10 07:40:13;;;;;;;;;;;8.40;99.90;;;;;;6115006;23;19925;-62
2022/10/10 07:42:38;;;;;;;;;;;8.50;99.90;;;;;;6114144;23;19925;-61
2022/10/10 07:45:04;;;;;;;;;;;8.60;99.90;;;;;;6113309;23;19979;-63
2022/10/10 07:47:30;;;;;;;;;;;8.70;99.90;;;;;;6115301;23;19932;-61
2022/10/10 07:49:55;;;;;;;;;;;8.70;99.90;;;;;;6114983;23;19931;-61
2022/10/10 07:52:21;;;;;;;;;;;8.90;99.90;;;;;;6113339;23;20347;-64
2022/10/10 07:54:47;;;;;;;;;;;9.00;99.90;;;;;;6114074;23;19925;-64
2022/10/10 07:57:12;;;;;;;;;;;9.10;99.90;;;;;;6112885;23;20243;-63
2022/10/10 07:59:39;;;;;;;;;;;9.30;99.90;;;;;;6115449;23;19959;-63
2022/10/10 08:02:05;;;;;;;;;;;9.40;99.90;;;;;;6114559;23;19929;-61
2022/10/10 08:04:30;;;;;;;;;;;9.70;99.90;;;;;;6113776;23;20338;-64
2022/10/10 08:06:56;;;;;;;;;;;9.50;99.90;;;;;;6115110;23;19929;-63
2022/10/10 08:09:23;;;;;;;;;;;9.60;99.90;;;;;;6115303;23;19993;-62
2022/10/10 08:11:48;;;;;;;;;;;10.00;99.90;;;;;;6115233;23;19935;-62
2022/10/10 08:14:14;;;;;;;;;;;10.20;99.90;;;;;;6115290;23;19924;-62
2022/10/10 08:16:39;;;;;;;;;;;10.10;99.90;;;;;;6111876;23;20348;-62
2022/10/10 08:19:06;;;;;;;;;;;10.20;99.90;;;;;;6114785;23;20408;-62
2022/10/10 08:21:31;;;;;;;;;;;10.40;99.90;;;;;;6114816;23;20000;-62
2022/10/10 08:23:57;;;;;;;;;;;10.70;99.90;;;;;;6115256;23;19952;-62
2022/10/10 08:26:22;;;;;;;;;;;10.50;99.90;;;;;;6114038;23;20344;-62
2022/10/10 08:28:48;;;;;;;;;;;10.90;99.90;;;;;;6113148;23;19951;-64
2022/10/10 08:31:15;;;;;;;;;;;10.80;99.90;;;;;;6114803;23;20018;-61
2022/10/10 08:33:42;;;;;;;;;;;10.90;99.90;;;;;;6114879;23;20188;-62
2022/10/10 08:36:09;;;;;;;;;;;11.10;99.90;;;;;;6114633;23;19924;-64
2022/10/10 08:38:34;;;;;;;;;;;11.30;99.90;;;;;;6114167;23;20253;-63
2022/10/10 08:41:05;;;;;;;;;;;11.50;99.90;;;;;;6115060;23;20110;-62
2022/10/10 08:43:34;;;;;;;;;;;11.60;99.90;;;;;;6113307;23;20643;-61
2022/10/10 08:46:04;;;;;;;;;;;11.70;99.90;;;;;;6113922;23;20003;-64
2022/10/10 08:48:30;;;;;;;;;;;12.10;99.90;;;;;;6115623;23;20251;-61
2022/10/10 08:51:00;;;;;;;;;;;12.00;99.90;;;;;;6114333;23;19978;-62
2022/10/10 08:53:36;;;;;;;;;;;11.70;99.90;;;;;;6114340;23;20360;-62
2022/10/10 08:56:04;;;;;;;;;;;11.90;99.90;;;;;;6114151;23;19925;-61
2022/10/10 08:58:37;;;;;;;;;;;12.10;99.90;;;;;;6113325;23;19928;-65
2022/10/10 09:01:06;;;;;;;;;;;12.30;99.90;;;;;;6114015;23;20394;-65
2022/10/10 09:03:40;;;;;;;;;;;12.70;99.90;;;;;;6114207;23;19931;-63
2022/10/10 09:06:18;;;;;;;;;;;13.20;99.90;;;;;;6114846;23;20263;-63
2022/10/10 09:08:43;;;;;;;;;;;13.60;99.90;;;;;;6114840;23;19925;-62
2022/10/10 09:11:21;;;;;;;;;;;14.00;99.90;;;;;;6116354;23;19970;-62
2022/10/10 09:14:01;;;;;;;;;;;14.40;99.90;;;;;;6113231;23;19983;-65
2022/10/10 09:16:35;;;;;;;;;;;14.60;99.90;;;;;;6113221;23;19960;-62
2022/10/10 09:19:22;;;;;;;;;;;14.90;99.90;;;;;;6112760;23;20730;-61
2022/10/10 09:21:51;;;;;;;;;;;15.00;99.90;;;;;;6114582;23;19929;-62
2022/10/10 09:24:21;;;;;;;;;;;15.10;99.90;;;;;;6113694;23;19970;-65
2022/10/10 09:26:50;;;;;;;;;;;15.00;99.90;;;;;;6113864;23;19960;-62
2022/10/10 09:29:24;;;;;;;;;;;15.50;99.90;;;;;;6113225;23;19925;-62
2022/10/10 09:31:56;;;;;;;;;;;15.30;99.90;;;;;;6113351;23;20231;-62
2022/10/10 09:34:30;;;;;;;;;;;15.80;99.90;;;;;;6113521;23;20164;-62
2022/10/10 09:36:59;;;;;;;;;;;16.00;99.90;;;;;;6114239;23;20390;-63
2022/10/10 09:39:24;;;;;;;;;;;16.60;99.90;;;;;;6112896;23;19925;-64
2022/10/10 09:41:54;;;;;;;;;;;16.60;99.90;;;;;;6113755;23;20283;-63
2022/10/10 09:44:20;;;;;;;;;;;17.10;99.90;;;;;;6113710;23;20300;-63
2022/10/10 09:46:46;;;;;;;;;;;16.80;99.90;;;;;;6114519;23;19924;-63
2022/10/10 09:49:13;;;;;;;;;;;16.90;99.90;;;;;;6113862;23;19925;-63
2022/10/10 09:51:39;;;;;;;;;;;16.90;99.90;;;;;;6114270;23;19925;-65
2022/10/10 09:54:05;;;;;;;;;;;17.20;99.90;;;;;;6115422;23;19932;-63
2022/10/10 09:56:33;;;;;;;;;;;17.80;99.90;;;;;;6115480;23;19950;-65
2022/10/10 09:58:59;;;;;;;;;;;17.50;99.90;;;;;;6116642;23;19932;-64
2022/10/10 10:01:26;;;;;;;;;;;17.20;99.90;;;;;;6116337;23;19925;-65
2022/10/10 10:04:05;;;;;;;;;;;17.10;99.90;;;;;;6115147;23;20012;-63
2022/10/10 10:06:31;;;;;;;;;;;16.80;99.90;;;;;;6115414;23;19932;-62
2022/10/10 10:09:00;;;;;;;;;;;16.90;99.90;;;;;;6116195;23;19925;-65
2022/10/10 10:11:27;;;;;;;;;;;16.60;99.90;;;;;;6115022;23;19925;-62
2022/10/10 10:13:54;;;;;;;;;;;16.80;99.90;;;;;;6116758;23;20010;-65
2022/10/10 10:16:28;;;;;;;;;;;16.70;99.90;;;;;;6114959;23;20296;-65
2022/10/10 10:18:53;;;;;;;;;;;16.40;99.90;;;;;;6116840;23;19925;-62
2022/10/10 10:21:22;;;;;;;;;;;16.60;99.90;;;;;;6116672;23;19925;-63
2022/10/10 10:23:51;;;;;;;;;;;16.60;99.90;;;;;;6115745;23;19929;-65
2022/10/10 10:26:17;;;;;;;;;;;16.50;99.90;;;;;;6115827;23;19925;-63
2022/10/10 10:28:43;;;;;;;;;;;16.80;99.90;;;;;;6115138;23;19925;-62
2022/10/10 10:31:18;;;;;;;;;;;16.90;99.90;;;;;;6116562;23;19971;-65
2022/10/10 10:34:09;;;;;;;;;;;17.10;99.90;;;;;;6114844;23;20003;-64
2022/10/10 10:36:34;;;;;;;;;;;16.90;99.90;;;;;;6115373;23;19925;-63
2022/10/10 10:39:19;;;;;;;;;;;17.10;99.90;;;;;;6114091;23;20430;-62
2022/10/10 10:41:47;;;;;;;;;;;17.40;99.90;;;;;;6116381;23;19931;-63
2022/10/10 10:44:18;;;;;;;;;;;17.40;99.90;;;;;;6117028;23;20358;-63
2022/10/10 10:47:09;;;;;;;;;;;17.60;99.90;;;;;;6115750;23;19932;-63
2022/10/10 10:49:35;;;;;;;;;;;17.80;99.90;;;;;;6115067;23;19947;-63
2022/10/10 10:52:01;;;;;;;;;;;17.60;99.90;;;;;;6116228;23;19932;-63
2022/10/10 10:54:42;;;;;;;;;;;17.60;99.90;;;;;;6116410;23;19996;-63
2022/10/10 10:57:07;;;;;;;;;;;17.80;99.90;;;;;;6116546;23;20359;-63
2022/10/10 10:59:52;;;;;;;;;;;18.20;99.90;;;;;;6116438;23;19936;-62
2022/10/10 11:02:25;;;;;;;;;;;18.00;99.90;;;;;;6116172;23;19952;-63
2022/10/10 11:05:04;;;;;;;;;;;18.40;99.90;;;;;;6113115;23;19932;-63
2022/10/10 11:07:50;;;;;;;;;;;18.30;99.90;;;;;;6116170;23;19924;-63
2022/10/10 11:10:33;;;;;;;;;;;18.00;99.90;;;;;;6121361;23;19925;-63
2022/10/10 11:13:10;;;;;;;;;;;18.00;99.90;;;;;;6114506;23;19929;-63
2022/10/10 11:15:43;;;;;;;;;;;18.00;99.90;;;;;;6116777;23;19925;-63
2022/10/10 11:18:11;;;;;;;;;;;18.30;99.90;;;;;;6115260;23;19925;-63
2022/10/10 11:20:44;;;;;;;;;;;18.60;99.90;;;;;;6113999;23;19925;-63
2022/10/10 11:23:11;;;;;;;;;;;18.80;99.90;;;;;;6115600;23;20000;-63
2022/10/10 11:25:43;;;;;;;;;;;18.50;99.90;;;;;;6116267;23;20302;-63
2022/10/10 11:28:14;;;;;;;;;;;18.00;99.90;;;;;;6116012;23;20227;-62
2022/10/10 11:30:43;;;;;;;;;;;17.90;99.90;;;;;;6115496;23;20274;-63
2022/10/10 11:33:09;;;;;;;;;;;17.90;99.90;;;;;;6115968;23;19998;-63
2022/10/10 11:35:43;;;;;;;;;;;17.60;99.90;;;;;;6115575;23;20245;-65
2022/10/10 11:38:13;;;;;;;;;;;17.40;99.90;;;;;;6114319;23;20290;-63
2022/10/10 11:40:43;;;;;;;;;;;17.20;99.90;;;;;;6115406;23;19971;-63
2022/10/10 11:43:14;;;;;;;;;;;16.70;99.90;;;;;;6115689;23;19929;-63
2022/10/10 11:45:44;;;;;;;;;;;16.40;99.90;;;;;;6112670;23;19932;-63
2022/10/10 11:48:17;;;;;;;;;;;16.40;99.90;;;;;;6115338;23;20009;-63
2022/10/10 11:50:43;;;;;;;;;;;16.10;99.90;;;;;;6112794;23;19925;-63
2022/10/10 11:53:21;;;;;;;;;;;15.90;99.90;;;;;;6114223;23;19936;-64
2022/10/10 11:55:49;;;;;;;;;;;15.70;99.90;;;;;;6114500;23;20511;-63
2022/10/10 11:58:26;;;;;;;;;;;15.40;99.90;;;;;;6116286;23;20407;-65
2022/10/10 12:00:56;;;;;;;;;;;15.30;99.90;;;;;;6116469;23;20011;-63
2022/10/10 12:03:23;;;;;;;;;;;15.20;99.90;;;;;;6115970;23;19925;-63
2022/10/10 12:05:51;;;;;;;;;;;15.00;99.90;;;;;;6115961;23;19932;-62
2022/10/10 12:08:38;;;;;;;;;;;14.90;99.90;;;;;;6115945;23;19957;-63
2022/10/10 12:11:06;;;;;;;;;;;14.80;99.90;;;;;;6115654;23;19929;-62
2022/10/10 12:13:40;;;;;;;;;;;14.70;99.90;;;;;;6116169;23;20321;-63
2022/10/10 12:16:18;;;;;;;;;;;14.70;99.90;;;;;;6116245;23;19925;-63
2022/10/10 12:18:44;;;;;;;;;;;14.40;99.90;;;;;;6114548;23;19964;-62
2022/10/10 12:21:14;;;;;;;;;;;14.40;99.90;;;;;;6116397;23;20293;-62
2022/10/10 12:23:42;;;;;;;;;;;14.50;99.90;;;;;;6116381;23;19925;-62
2022/10/10 12:26:12;;;;;;;;;;;14.40;99.90;;;;;;6115945;23;19925;-63
2022/10/10 12:28:57;;;;;;;;;;;14.30;99.90;;;;;;6115901;23;19932;-62
2022/10/10 12:31:26;;;;;;;;;;;14.40;99.90;;;;;;6115971;23;19925;-62
2022/10/10 12:34:08;;;;;;;;;;;14.40;99.90;;;;;;6114504;23;19967;-62
2022/10/10 12:36:39;;;;;;;;;;;14.40;99.90;;;;;;6116353;23;19932;-63
2022/10/10 12:39:06;;;;;;;;;;;14.60;99.90;;;;;;6114961;23;20395;-62
2022/10/10 12:41:38;;;;;;;;;;;14.50;99.90;;;;;;6115289;23;19940;-62
2022/10/10 12:44:22;;;;;;;;;;;14.70;99.90;;;;;;6115842;23;20413;-63
2022/10/10 12:47:08;;;;;;;;;;;14.60;99.90;;;;;;6116489;23;20294;-62
2022/10/10 12:49:34;;;;;;;;;;;14.60;99.90;;;;;;6120239;23;19999;-62
2022/10/10 12:52:01;;;;;;;;;;;14.70;99.90;;;;;;6115900;23;19979;-63
2022/10/10 12:54:29;;;;;;;;;;;15.00;99.90;;;;;;6115070;23;19925;-62
2022/10/10 12:57:24;;;;;;;;;;;14.60;99.90;;;;;;6116093;23;19959;-63
2022/10/10 12:59:50;;;;;;;;;;;14.60;99.90;;;;;;6121261;23;19925;-64
2022/10/10 13:02:18;;;;;;;;;;;14.60;99.90;;;;;;6115885;23;20358;-63
2022/10/10 13:04:45;;;;;;;;;;;14.50;99.90;;;;;;6114906;23;20004;-65
2022/10/10 13:07:15;;;;;;;;;;;14.50;99.90;;;;;;6116193;23;20004;-63
2022/10/10 13:09:43;;;;;;;;;;;14.40;99.90;;;;;;6115430;23;19970;-64
2022/10/10 13:12:20;;;;;;;;;;;14.40;99.90;;;;;;6114751;23;19929;-64
2022/10/10 13:14:46;;;;;;;;;;;14.40;99.90;;;;;;6115401;23;19925;-63
2022/10/10 13:17:22;;;;;;;;;;;14.40;99.90;;;;;;6112764;23;20418;-62
2022/10/10 13:19:48;;;;;;;;;;;14.40;99.90;;;;;;6114834;23;20054;-63
2022/10/10 13:22:14;;;;;;;;;;;14.40;99.90;;;;;;6114469;23;20355;-62
2022/10/10 13:24:40;;;;;;;;;;;14.40;99.90;;;;;;6114823;23;19925;-62
2022/10/10 13:27:12;;;;;;;;;;;14.40;99.90;;;;;;6115805;23;19952;-62
2022/10/10 13:29:39;;;;;;;;;;;14.50;99.90;;;;;;6116372;23;19960;-63
2022/10/10 13:32:06;;;;;;;;;;;14.40;99.90;;;;;;6116874;23;19932;-63
2022/10/10 13:34:33;;;;;;;;;;;14.40;99.90;;;;;;6116512;23;19932;-62
2022/10/10 13:37:00;;;;;;;;;;;14.40;99.90;;;;;;6116461;23;20344;-65
2022/10/10 13:39:26;;;;;;;;;;;14.30;99.90;;;;;;6116205;23;20423;-62
2022/10/10 13:41:52;;;;;;;;;;;14.20;99.90;;;;;;6116643;23;19993;-62
2022/10/10 13:44:22;;;;;;;;;;;14.20;99.90;;;;;;6117299;23;19933;-62
2022/10/10 13:46:48;;;;;;;;;;;14.00;99.90;;;;;;6116585;23;19936;-61
2022/10/10 13:49:21;;;;;;;;;;;14.10;99.90;;;;;;6115900;23;19925;-62
2022/10/10 13:51:48;;;;;;;;;;;14.10;99.90;;;;;;6115419;23;19925;-61
2022/10/10 13:54:52;;;;;;;;;;;14.00;99.90;;;;;;6116447;23;19925;-61
2022/10/10 13:57:25;;;;;;;;;;;14.00;99.90;;;;;;6123281;23;19931;-62
2022/10/10 14:00:13;;;;;;;;;;;13.90;99.90;;;;;;6123302;23;19985;-61
2022/10/10 14:02:40;;;;;;;;;;;13.80;99.90;;;;;;6126251;23;19971;-62
2022/10/10 14:05:07;;;;;;;;;;;13.80;99.90;;;;;;6115811;23;19925;-62
2022/10/10 14:07:32;;;;;;;;;;;13.70;99.90;;;;;;6114430;23;19932;-62
2022/10/10 14:10:03;;;;;;;;;;;13.50;99.90;;;;;;6115583;23;20284;-62
2022/10/10 14:12:33;;;;;;;;;;;13.40;99.90;;;;;;6116833;23;20232;-61
2022/10/10 14:15:00;;;;;;;;;;;13.20;99.90;;;;;;6114185;23;19925;-62
2022/10/10 14:17:26;;;;;;;;;;;13.10;99.90;;;;;;6115490;23;19931;-62
2022/10/10 14:19:52;;;;;;;;;;;13.00;99.90;;;;;;6115066;23;19925;-61
2022/10/10 14:22:18;;;;;;;;;;;12.90;99.90;;;;;;6115067;23;19929;-62
2022/10/10 14:24:43;;;;;;;;;;;12.90;99.90;;;;;;6114467;23;19955;-62
2022/10/10 14:27:09;;;;;;;;;;;12.70;99.90;;;;;;6115469;23;20112;-62
2022/10/10 14:29:35;;;;;;;;;;;12.80;99.90;;;;;;6114779;23;19956;-62
2022/10/10 14:32:00;;;;;;;;;;;12.70;99.90;;;;;;6114511;23;20403;-61